createdAt,value
2018-07-31T00:00:10.714Z,101604.67
2018-07-31T00:03:13.929Z,101602.08
2018-07-31T00:06:24.726Z,101598.75
2018-07-31T00:09:27.999Z,101599.58
2018-07-31T00:12:31.313Z,101596.03
2018-07-31T00:15:34.594Z,101595.90
2018-07-31T00:18:37.796Z,101595.38
2018-07-31T00:21:41.082Z,101594.48
2018-07-31T00:24:44.267Z,101593.10
2018-07-31T00:27:47.575Z,101594.44
2018-07-31T00:30:50.854Z,101594.85
2018-07-31T00:33:55.196Z,101597.20
2018-07-31T00:37:03.956Z,101593.07
2018-07-31T00:40:07.130Z,101589.24
2018-07-31T00:43:10.415Z,101589.69
2018-07-31T00:46:13.607Z,101584.77
2018-07-31T00:49:16.907Z,101585.82
2018-07-31T00:52:20.237Z,101581.88
2018-07-31T00:55:24.608Z,101581.56
2018-07-31T00:58:27.938Z,101582.78
2018-07-31T01:01:31.222Z,101580.40
2018-07-31T01:04:34.852Z,101580.23
2018-07-31T01:07:38.315Z,101579.91
2018-07-31T01:10:41.534Z,101577.55
2018-07-31T01:13:44.730Z,101576.43
2018-07-31T01:16:48.023Z,101574.17
2018-07-31T01:19:51.338Z,101576.47
2018-07-31T01:22:55.296Z,101572.43
2018-07-31T01:25:58.531Z,101569.53
2018-07-31T01:29:01.950Z,101569.62
2018-07-31T01:32:05.253Z,101570.35
2018-07-31T01:35:08.543Z,101571.63
2018-07-31T01:38:11.857Z,101573.76
2018-07-31T01:41:15.135Z,101572.96
2018-07-31T01:44:18.407Z,101577.44
2018-07-31T01:47:21.610Z,101585.86
2018-07-31T01:50:24.999Z,101587.48
2018-07-31T01:53:28.344Z,101588.16
2018-07-31T01:56:31.610Z,101584.13
2018-07-31T01:59:34.888Z,101584.56
2018-07-31T02:02:38.338Z,101584.71
2018-07-31T02:05:41.603Z,101584.88
2018-07-31T02:08:44.903Z,101579.41
2018-07-31T02:11:48.266Z,101581.59
2018-07-31T02:14:51.475Z,101578.86
2018-07-31T02:17:55.361Z,101579.62
2018-07-31T02:20:59.657Z,101577.02
2018-07-31T02:24:02.956Z,101577.25
2018-07-31T02:27:07.207Z,101575.18
2018-07-31T02:30:14.520Z,101574.47
2018-07-31T02:33:17.732Z,101571.92
2018-07-31T02:36:21.043Z,101576.09
2018-07-31T02:39:24.358Z,101574.40
2018-07-31T02:42:27.523Z,101571.92
2018-07-31T02:45:30.802Z,101578.13
2018-07-31T02:48:34.044Z,101581.99
2018-07-31T02:51:37.359Z,101579.29
2018-07-31T02:54:40.603Z,101577.54
2018-07-31T02:57:43.820Z,101577.26
2018-07-31T03:00:47.095Z,101576.67
2018-07-31T03:03:50.322Z,101574.65
2018-07-31T03:06:54.669Z,101570.22
2018-07-31T03:09:58.144Z,101575.90
2018-07-31T03:13:01.407Z,101577.74
2018-07-31T03:16:05.994Z,101584.70
2018-07-31T03:19:10.296Z,101593.37
2018-07-31T03:22:13.657Z,101600.86
2018-07-31T03:25:16.949Z,101602.19
2018-07-31T03:28:20.245Z,101600.43
2018-07-31T03:31:24.279Z,101599.24
2018-07-31T03:34:27.590Z,101595.46
2018-07-31T03:37:30.782Z,101597.17
2018-07-31T03:40:34.079Z,101596.03
2018-07-31T03:43:38.424Z,101596.20
2018-07-31T03:46:41.704Z,101600.01
2018-07-31T03:49:45.974Z,101597.28
2018-07-31T03:52:49.318Z,101597.54
2018-07-31T03:55:52.598Z,101600.69
2018-07-31T03:58:55.935Z,101607.74
2018-07-31T04:01:59.239Z,101615.30
2018-07-31T04:05:02.476Z,101615.01
2018-07-31T04:08:05.803Z,101613.37
2018-07-31T04:11:09.122Z,101617.90
2018-07-31T04:14:12.481Z,101621.61
2018-07-31T04:17:16.093Z,101620.86
2018-07-31T04:20:19.327Z,101619.32
2018-07-31T04:23:24.704Z,101617.16
2018-07-31T04:26:28.947Z,101621.24
2018-07-31T04:29:32.367Z,101627.02
2018-07-31T04:32:35.648Z,101624.29
2018-07-31T04:35:38.963Z,101630.20
2018-07-31T04:38:42.257Z,101631.43
2018-07-31T04:41:46.473Z,101629.53
2018-07-31T04:44:49.796Z,101632.82
2018-07-31T04:47:53.067Z,101634.45
2018-07-31T04:50:56.265Z,101631.96
2018-07-31T04:53:59.989Z,101629.29
2018-07-31T04:57:03.740Z,101630.31
2018-07-31T05:00:08.383Z,101633.19
2018-07-31T05:03:11.694Z,101624.69
2018-07-31T05:06:14.928Z,101627.25
2018-07-31T05:09:18.232Z,101623.43
2018-07-31T05:12:21.483Z,101623.40
2018-07-31T05:15:24.826Z,101628.81
2018-07-31T05:18:28.095Z,101624.29
2018-07-31T05:21:31.366Z,101628.96
2018-07-31T05:24:35.306Z,101630.55
2018-07-31T05:27:38.643Z,101629.17
2018-07-31T05:30:41.815Z,101638.58
2018-07-31T05:33:45.083Z,101639.88
2018-07-31T05:36:48.379Z,101647.10
2018-07-31T05:39:51.931Z,101646.99
2018-07-31T05:42:55.175Z,101656.04
2018-07-31T05:45:58.394Z,101655.88
2018-07-31T05:49:01.897Z,101658.33
2018-07-31T05:52:05.348Z,101660.17
2018-07-31T05:55:08.656Z,101662.98
2018-07-31T05:58:11.860Z,101669.25
2018-07-31T06:01:15.151Z,101664.26
2018-07-31T06:04:18.431Z,101661.60
2018-07-31T06:07:21.760Z,101661.15
2018-07-31T06:10:25.057Z,101667.57
2018-07-31T06:13:29.400Z,101666.92
2018-07-31T06:16:33.338Z,101668.94
2018-07-31T06:19:36.628Z,101674.38
2018-07-31T06:22:39.903Z,101673.97
2018-07-31T06:25:43.129Z,101665.18
2018-07-31T06:28:46.291Z,101677.36
2018-07-31T06:31:49.570Z,101682.27
2018-07-31T06:34:52.870Z,101677.86
2018-07-31T06:37:56.123Z,101678.07
2018-07-31T06:40:59.351Z,101680.25
2018-07-31T06:44:03.113Z,101677.92
2018-07-31T06:47:06.407Z,101673.84
2018-07-31T06:50:09.606Z,101667.82
2018-07-31T06:53:12.880Z,101673.17
2018-07-31T06:56:16.110Z,101682.95
2018-07-31T06:59:19.467Z,101675.75
2018-07-31T07:02:22.795Z,101682.67
2018-07-31T07:05:26.094Z,101677.95
2018-07-31T07:08:34.673Z,101681.38
2018-07-31T07:11:37.874Z,101685.41
2018-07-31T07:14:41.170Z,101690.63
2018-07-31T07:17:44.504Z,101690.25
2018-07-31T07:20:47.786Z,101692.98
2018-07-31T07:23:51.082Z,101695.32
2018-07-31T07:26:54.397Z,101696.86
2018-07-31T07:29:57.817Z,101700.89
2018-07-31T07:33:01.199Z,101695.96
2018-07-31T07:36:05.387Z,101694.62
2018-07-31T07:39:11.593Z,101695.62
2018-07-31T07:42:14.760Z,101692.04
2018-07-31T07:45:18.061Z,101692.96
2018-07-31T07:48:21.396Z,101697.36
2018-07-31T07:51:24.661Z,101696.91
2018-07-31T07:54:27.823Z,101697.22
2018-07-31T07:57:31.112Z,101702.50
2018-07-31T08:00:35.463Z,101707.80
2018-07-31T08:03:38.803Z,101706.14
2018-07-31T08:06:42.064Z,101705.54
2018-07-31T08:09:45.263Z,101703.35
2018-07-31T08:12:49.460Z,101697.21
2018-07-31T08:15:52.798Z,101694.70
2018-07-31T08:18:56.036Z,101693.29
2018-07-31T08:21:59.352Z,101692.86
2018-07-31T08:25:03.060Z,101695.05
2018-07-31T08:28:06.251Z,101699.31
2018-07-31T08:31:09.569Z,101700.38
2018-07-31T08:34:12.787Z,101705.25
2018-07-31T08:37:16.049Z,101709.62
2018-07-31T08:40:19.373Z,101706.94
2018-07-31T08:43:22.671Z,101706.38
2018-07-31T08:46:26.172Z,101708.29
2018-07-31T08:49:29.431Z,101706.14
2018-07-31T08:52:33.179Z,101707.08
2018-07-31T08:55:36.658Z,101706.20
2018-07-31T08:58:40.950Z,101706.25
2018-07-31T09:01:44.146Z,101700.06
2018-07-31T09:04:47.468Z,101702.27
2018-07-31T09:07:51.146Z,101698.36
2018-07-31T09:10:54.706Z,101701.74
2018-07-31T09:13:57.939Z,101694.39
2018-07-31T09:17:01.180Z,101694.92
2018-07-31T09:20:05.431Z,101699.85
2018-07-31T09:23:08.687Z,101695.92
2018-07-31T09:26:12.036Z,101690.04
2018-07-31T09:29:15.251Z,101697.91
2018-07-31T09:32:22.702Z,101698.47
2018-07-31T09:35:25.967Z,101693.23
2018-07-31T09:38:29.175Z,101697.59
2018-07-31T09:41:35.359Z,101693.11
2018-07-31T09:44:38.717Z,101693.46
2018-07-31T09:47:42.931Z,101689.13
2018-07-31T09:50:46.040Z,101692.25
2018-07-31T09:53:49.253Z,101689.26
2018-07-31T09:56:52.798Z,101688.35
2018-07-31T09:59:56.076Z,101683.14
2018-07-31T10:02:59.323Z,101684.86
2018-07-31T10:06:03.172Z,101676.93
2018-07-31T10:09:08.927Z,101675.83
2018-07-31T10:12:12.172Z,101675.49
2018-07-31T10:15:15.351Z,101673.85
2018-07-31T10:18:18.668Z,101675.67
2018-07-31T10:21:21.706Z,101669.27
2018-07-31T10:24:24.985Z,101669.95
2018-07-31T10:27:28.199Z,101661.25
2018-07-31T10:30:31.451Z,101663.74
2018-07-31T10:33:35.613Z,101657.74
2018-07-31T10:36:38.783Z,101657.76
2018-07-31T10:39:42.053Z,101648.38
2018-07-31T10:42:45.246Z,101652.85
2018-07-31T10:45:48.615Z,101650.72
2018-07-31T10:48:51.842Z,101650.40
2018-07-31T10:51:55.078Z,101645.18
2018-07-31T10:54:58.348Z,101648.61
2018-07-31T10:58:01.552Z,101647.30
2018-07-31T11:01:05.925Z,101646.87
2018-07-31T11:04:09.054Z,101644.46
2018-07-31T11:07:12.252Z,101648.21
2018-07-31T11:10:15.547Z,101645.04
2018-07-31T11:13:18.895Z,101645.88
2018-07-31T11:16:22.128Z,101647.09
2018-07-31T11:19:25.448Z,101644.59
2018-07-31T11:22:28.792Z,101635.36
2018-07-31T11:25:32.087Z,101636.93
2018-07-31T11:28:36.800Z,101635.74
2018-07-31T11:31:41.091Z,101639.02
2018-07-31T11:34:44.281Z,101631.97
2018-07-31T11:37:47.593Z,101633.83
2018-07-31T11:40:50.934Z,101624.53
2018-07-31T11:43:54.452Z,101619.88
2018-07-31T11:46:57.578Z,101620.09
2018-07-31T11:50:01.005Z,101616.48
2018-07-31T11:53:04.985Z,101616.36
2018-07-31T11:56:08.188Z,101613.94
2018-07-31T11:59:11.410Z,101614.39
2018-07-31T12:02:14.687Z,101602.56
2018-07-31T12:05:17.968Z,101602.21
2018-07-31T12:08:21.262Z,101606.55
2018-07-31T12:11:24.601Z,101595.54
2018-07-31T12:14:27.772Z,101598.43
2018-07-31T12:17:30.982Z,101603.16
2018-07-31T12:20:35.310Z,101593.96
2018-07-31T12:23:38.605Z,101595.36
2018-07-31T12:26:41.897Z,101587.23
2018-07-31T12:29:45.163Z,101593.36
2018-07-31T12:32:48.434Z,101594.21
2018-07-31T12:35:51.568Z,101595.19
2018-07-31T12:38:54.891Z,101599.82
2018-07-31T12:41:58.179Z,101595.11
2018-07-31T12:45:01.460Z,101599.01
2018-07-31T12:48:04.772Z,101599.10
2018-07-31T12:51:08.056Z,101594.17
2018-07-31T12:54:11.372Z,101595.83
2018-07-31T12:57:14.707Z,101592.07
2018-07-31T13:00:18.063Z,101589.47
2018-07-31T13:03:21.384Z,101589.58
2018-07-31T13:06:24.703Z,101588.29
2018-07-31T13:09:27.980Z,101590.68
2018-07-31T13:12:31.249Z,101591.62
2018-07-31T13:15:35.650Z,101578.85
2018-07-31T13:18:38.879Z,101582.15
2018-07-31T13:21:42.239Z,101579.29
2018-07-31T13:24:45.547Z,101585.63
2018-07-31T13:27:49.129Z,101574.38
2018-07-31T13:30:52.498Z,101571.19
2018-07-31T13:33:55.667Z,101570.51
2018-07-31T13:36:59.253Z,101557.62
2018-07-31T13:40:05.702Z,101562.35
2018-07-31T13:43:09.015Z,101563.23
2018-07-31T13:46:12.403Z,101561.61
2018-07-31T13:49:15.901Z,101563.47
2018-07-31T13:52:19.151Z,101564.85
2018-07-31T13:55:22.332Z,101564.88
2018-07-31T13:58:25.703Z,101561.81
2018-07-31T14:01:28.950Z,101559.75
2018-07-31T14:04:32.256Z,101561.61
2018-07-31T14:07:36.480Z,101551.90
2018-07-31T14:10:40.208Z,101563.10
2018-07-31T14:13:43.450Z,101564.17
2018-07-31T14:16:46.610Z,101564.98
2018-07-31T14:19:49.807Z,101548.54
2018-07-31T14:22:53.294Z,101556.20
2018-07-31T14:25:56.436Z,101551.22
2018-07-31T14:28:59.764Z,101562.86
2018-07-31T14:32:03.365Z,101567.72
2018-07-31T14:35:06.647Z,101578.69
2018-07-31T14:38:11.139Z,101571.75
2018-07-31T14:41:14.894Z,101568.05
2018-07-31T14:44:18.207Z,101564.65
2018-07-31T14:47:21.493Z,101567.11
2018-07-31T14:50:24.744Z,101563.16
2018-07-31T14:53:27.958Z,101560.35
2018-07-31T14:56:31.230Z,101569.66
2018-07-31T14:59:35.485Z,101561.36
2018-07-31T15:02:39.938Z,101559.61
2018-07-31T15:05:44.290Z,101551.57
2018-07-31T15:08:47.601Z,101553.99
2018-07-31T15:11:50.949Z,101555.69
2018-07-31T15:14:54.240Z,101566.45
2018-07-31T15:17:57.547Z,101559.01
2018-07-31T15:21:00.916Z,101562.11
2018-07-31T15:24:05.203Z,101561.62
2018-07-31T15:27:08.574Z,101559.92
2018-07-31T15:30:11.927Z,101564.27
2018-07-31T15:33:15.179Z,101565.96
2018-07-31T15:36:18.496Z,101560.70
2018-07-31T15:39:21.763Z,101563.89
2018-07-31T15:42:24.997Z,101562.91
2018-07-31T15:45:28.286Z,101566.33
2018-07-31T15:48:34.426Z,101566.08
2018-07-31T15:51:37.679Z,101571.47
2018-07-31T15:54:40.944Z,101562.65
2018-07-31T15:57:44.149Z,101567.98
2018-07-31T16:00:47.447Z,101571.02
2018-07-31T16:03:51.643Z,101567.60
2018-07-31T16:06:54.908Z,101561.33
2018-07-31T16:09:58.079Z,101567.11
2018-07-31T16:13:01.377Z,101571.65
2018-07-31T16:16:05.464Z,101567.82
2018-07-31T16:19:08.765Z,101557.73
2018-07-31T16:22:12.108Z,101559.41
2018-07-31T16:25:15.391Z,101560.27
2018-07-31T16:28:18.779Z,101552.66
2018-07-31T16:31:22.075Z,101553.45
2018-07-31T16:34:25.254Z,101552.76
2018-07-31T16:37:28.648Z,101555.19
2018-07-31T16:40:31.887Z,101553.63
2018-07-31T16:43:36.347Z,101561.22
2018-07-31T16:46:39.572Z,101554.77
2018-07-31T16:49:42.916Z,101551.08
2018-07-31T16:52:47.191Z,101552.45
2018-07-31T16:55:50.481Z,101556.06
2018-07-31T16:58:53.683Z,101557.94
2018-07-31T17:01:56.997Z,101555.62
2018-07-31T17:05:00.259Z,101560.79
2018-07-31T17:08:04.923Z,101561.73
2018-07-31T17:11:08.278Z,101560.96
2018-07-31T17:14:11.675Z,101560.87
2018-07-31T17:17:14.894Z,101561.87
2018-07-31T17:20:19.371Z,101558.67
2018-07-31T17:23:22.524Z,101564.58
2018-07-31T17:26:25.951Z,101562.10
2018-07-31T17:29:29.267Z,101566.46
2018-07-31T17:32:32.510Z,101569.34
2018-07-31T17:35:35.655Z,101572.23
2018-07-31T17:38:40.047Z,101576.13
2018-07-31T17:41:43.242Z,101577.85
2018-07-31T17:44:46.571Z,101576.84
2018-07-31T17:47:49.866Z,101581.23
2018-07-31T17:50:53.443Z,101583.01
2018-07-31T17:53:56.643Z,101590.70
2018-07-31T17:56:59.943Z,101591.47
2018-07-31T18:00:03.219Z,101597.76
2018-07-31T18:03:06.663Z,101600.01
2018-07-31T18:06:10.183Z,101603.23
2018-07-31T18:09:13.435Z,101611.01
2018-07-31T18:12:16.731Z,101617.03
2018-07-31T18:15:20.079Z,101614.61
2018-07-31T18:18:23.450Z,101616.37
2018-07-31T18:21:26.784Z,101622.17
2018-07-31T18:24:30.164Z,101624.96
2018-07-31T18:27:33.505Z,101630.45
2018-07-31T18:30:36.749Z,101628.74
2018-07-31T18:33:40.708Z,101633.83
2018-07-31T18:36:43.979Z,101630.36
2018-07-31T18:39:47.265Z,101634.56
2018-07-31T18:42:50.558Z,101630.67
2018-07-31T18:45:53.806Z,101634.77
2018-07-31T18:48:57.141Z,101633.59
2018-07-31T18:52:00.627Z,101637.96
2018-07-31T18:55:03.951Z,101637.41
2018-07-31T18:58:07.123Z,101645.20
2018-07-31T19:01:10.975Z,101647.29
2018-07-31T19:04:14.223Z,101646.40
2018-07-31T19:07:17.551Z,101657.48
2018-07-31T19:10:20.924Z,101658.48
2018-07-31T19:13:24.348Z,101658.09
2018-07-31T19:16:27.726Z,101661.51
2018-07-31T19:19:31.334Z,101664.83
2018-07-31T19:22:34.637Z,101672.87
2018-07-31T19:25:37.927Z,101674.81
2018-07-31T19:28:41.199Z,101677.47
2018-07-31T19:31:44.465Z,101675.82
2018-07-31T19:34:47.827Z,101676.28
2018-07-31T19:37:52.883Z,101677.06
2018-07-31T19:40:56.281Z,101682.92
2018-07-31T19:44:01.580Z,101684.95
2018-07-31T19:47:04.969Z,101684.27
2018-07-31T19:50:08.217Z,101687.84
2018-07-31T19:53:12.903Z,101689.62
2018-07-31T19:56:16.300Z,101690.93
2018-07-31T19:59:19.459Z,101693.54
2018-07-31T20:02:22.738Z,101694.23
2018-07-31T20:05:25.971Z,101698.74
2018-07-31T20:08:29.123Z,101701.60
2018-07-31T20:11:32.395Z,101701.85
2018-07-31T20:14:35.647Z,101705.26
2018-07-31T20:17:39.015Z,101705.18
2018-07-31T20:20:42.802Z,101710.34
2018-07-31T20:23:46.142Z,101718.27
2018-07-31T20:26:49.408Z,101724.05
2018-07-31T20:29:52.683Z,101728.31
2018-07-31T20:32:55.884Z,101729.90
2018-07-31T20:35:58.995Z,101732.71
2018-07-31T20:39:05.389Z,101735.84
2018-07-31T20:42:08.646Z,101731.98
2018-07-31T20:45:13.014Z,101734.94
2018-07-31T20:48:16.364Z,101732.33
2018-07-31T20:51:19.590Z,101734.99
2018-07-31T20:54:22.914Z,101735.91
2018-07-31T20:57:26.164Z,101739.74
2018-07-31T21:00:29.474Z,101745.23
2018-07-31T21:03:33.794Z,101749.45
2018-07-31T21:06:37.115Z,101755.89
2018-07-31T21:09:41.439Z,101762.06
2018-07-31T21:12:44.755Z,101765.99
2018-07-31T21:15:48.029Z,101763.93
2018-07-31T21:18:51.339Z,101777.90
2018-07-31T21:21:54.499Z,101775.19
2018-07-31T21:24:57.771Z,101780.22
2018-07-31T21:28:01.090Z,101785.20
2018-07-31T21:31:04.531Z,101786.20
2018-07-31T21:34:08.020Z,101790.72
2018-07-31T21:37:11.651Z,101790.85
2018-07-31T21:40:15.027Z,101794.40
2018-07-31T21:43:18.283Z,101797.34
2018-07-31T21:46:21.568Z,101798.73
2018-07-31T21:49:24.765Z,101798.97
2018-07-31T21:52:28.063Z,101797.93
2018-07-31T21:55:31.400Z,101797.62
2018-07-31T21:58:34.696Z,101795.92
2018-07-31T22:01:37.999Z,101798.19
2018-07-31T22:04:41.502Z,101798.14
2018-07-31T22:07:44.767Z,101788.74
2018-07-31T22:10:48.063Z,101778.35
2018-07-31T22:13:51.516Z,101772.67
2018-07-31T22:16:54.791Z,101784.91
2018-07-31T22:19:58.190Z,101784.51
2018-07-31T22:23:01.488Z,101788.85
2018-07-31T22:26:04.786Z,101785.37
2018-07-31T22:29:08.195Z,101788.33
2018-07-31T22:32:12.143Z,101791.11
2018-07-31T22:35:15.675Z,101788.59
2018-07-31T22:38:18.966Z,101791.45
2018-07-31T22:41:22.266Z,101790.67
2018-07-31T22:44:25.501Z,101789.81
2018-07-31T22:47:28.802Z,101793.45
2018-07-31T22:50:32.038Z,101793.16
2018-07-31T22:53:35.367Z,101798.94
2018-07-31T22:56:38.776Z,101802.58
2018-07-31T22:59:43.174Z,101807.17
2018-07-31T23:02:46.463Z,101806.30
2018-07-31T23:05:49.763Z,101807.85
2018-07-31T23:08:52.973Z,101814.01
2018-07-31T23:11:56.246Z,101808.97
2018-07-31T23:15:00.505Z,101807.81
2018-07-31T23:18:03.693Z,101804.62
2018-07-31T23:21:06.856Z,101803.80
2018-07-31T23:24:10.047Z,101811.50
2018-07-31T23:27:14.188Z,101815.22
2018-07-31T23:30:17.491Z,101823.74
2018-07-31T23:33:20.767Z,101818.03
2018-07-31T23:36:23.895Z,101818.69
2018-07-31T23:39:27.171Z,101824.33
2018-07-31T23:42:30.894Z,101823.84
2018-07-31T23:45:34.199Z,101819.45
2018-07-31T23:48:37.463Z,101818.40
2018-07-31T23:51:40.684Z,101816.54
2018-07-31T23:54:44.155Z,101811.50
2018-07-31T23:57:47.499Z,101816.65
